Manoa — KDBG — position and weather

sailwx.info

Track history (hours):
 
Tides and Currents Weather Stations Pressure Air Temp Water Temp Dewpoint Dewpoint Depression Visibility Wind Speed Wind Dir Waves Ship Positions

Manoa

Owner: MATSON NAVIGATION CO, RALEIGH, NC. More information available from US FCC via Universal Licensing System and Coast Guard Vessel Documentation Center.

Last reported at 2014-Nov-21 06:00 UTC. Time now 2014-Nov-21 20:27 UTC.
Position N 32°18' W 137°48'.

Type: Cargo ship. MMSI: 366562000.

Wind from 300 at 19 knots

Barometer 1025.1 mb
Air temperature 19.4 ° C
Visibility: greater than 10.8 NM
Dewpoint 14.1 ° C
Water temperature 22.4 ° C

Date/timePositionNaut miles runAvg speedWind from/ knotsBaromVisibWave heightAir tempDewpointWater temp
2014-Nov-21 06:00N 32°18' W 137°48'77918.3 300 / 191025.110.8 19.414.122.4
2014-Nov-19 11:27N 37°30' W 123°18'1516.9
2014-Nov-19 10:33N 37°36' W 123°00'1716.6
2014-Nov-19 09:33N 37°44' W 122°42'1313.2
2014-Nov-19 08:34N 37°50' W 122°27'8 7.6
2014-Nov-19 07:33N 37°48' W 122°18'0 0.0
2014-Nov-19 06:33N 37°48' W 122°18'0 0.0
2014-Nov-19 05:31N 37°48' W 122°18'0 0.0
2014-Nov-19 04:31N 37°48' W 122°18'0 0.0
2014-Nov-19 03:31N 37°48' W 122°18'0 0.0
2014-Nov-19 02:31N 37°48' W 122°18'0 0.0
2014-Nov-19 01:31N 37°48' W 122°18'0 0.0
2014-Nov-19 00:31N 37°48' W 122°18'0 0.0
2014-Nov-18 23:31N 37°48' W 122°18'0 0.0
2014-Nov-18 22:31N 37°48' W 122°18'0 0.0
2014-Nov-18 21:31N 37°48' W 122°18'0 0.0
2014-Nov-18 20:31N 37°48' W 122°18'0 0.0
2014-Nov-18 19:31N 37°48' W 122°18'0 0.0
2014-Nov-18 18:31N 37°48' W 122°18'0 0.0
2014-Nov-18 17:31N 37°48' W 122°18'0 0.0
2014-Nov-18 16:31N 37°48' W 122°18'0 0.0
2014-Nov-18 15:31N 37°48' W 122°18'0 0.0
2014-Nov-18 14:31N 37°48' W 122°18'0 0.0
2014-Nov-18 13:31N 37°48' W 122°18'0 0.0
2014-Nov-18 12:31N 37°48' W 122°18'0 0.0
2014-Nov-18 11:31N 37°48' W 122°18'0 0.0
2014-Nov-18 10:31N 37°48' W 122°18'0 0.0
2014-Nov-18 09:31N 37°48' W 122°18'0 0.0
2014-Nov-18 08:31N 37°48' W 122°18'0 0.0
2014-Nov-18 07:31N 37°48' W 122°18'0 0.0
2014-Nov-18 06:31N 37°48' W 122°18'0 0.0
2014-Nov-18 05:31N 37°48' W 122°18'0 0.0
2014-Nov-18 04:31N 37°48' W 122°18'0 0.0
2014-Nov-18 03:31N 37°48' W 122°18'0 0.4
2014-Nov-18 02:33N 37°48' W 122°18'4 3.6
2014-Nov-18 01:33N 37°47' W 122°22'6 5.9
2014-Nov-18 00:33N 37°49' W 122°29'1212.3
2014-Nov-17 23:33N 37°47' W 122°45'1716.9
2014-Nov-17 22:33N 37°54' W 123°04'1818.0
2014-Nov-17 21:33N 38°06' W 123°21'1818.2
2014-Nov-17 20:33N 38°15' W 123°40'1615.9
2014-Nov-17 19:33N 38°23' W 123°58'1918.7
2014-Nov-17 18:33N 38°35' W 124°16'2322.6
2014-Nov-17 17:33N 38°57' W 124°25'39222.9
2014-Nov-17 00:25N 45°27' W 125°16'2023.0
2014-Nov-16 23:34N 45°47' W 125°17'2222.1
2014-Nov-16 22:33N 46°09' W 125°18'1818.4
2014-Nov-16 21:33N 46°27' W 125°19'2322.4
2014-Nov-16 20:32N 46°50' W 125°20'7522.3
2014-Nov-16 17:09N 48°05' W 125°18'1423.1
2014-Nov-16 16:33N 48°19' W 125°11'2020.1
2014-Nov-16 15:34N 48°31' W 124°48'2323.1
2014-Nov-16 14:34N 48°23' W 124°15'2322.7
2014-Nov-16 13:33N 48°16' W 123°42'1515.4
2014-Nov-16 12:34N 48°09' W 123°22'1817.7
2014-Nov-16 11:33N 48°12' W 122°56'2121.4
2014-Nov-16 10:33N 47°57' W 122°33'1817.9
2014-Nov-16 09:33N 47°40' W 122°27'7 6.6
2014-Nov-16 08:33N 47°35' W 122°21'0 0.0
2014-Nov-16 07:33N 47°35' W 122°21'0 0.0
2014-Nov-16 06:33N 47°35' W 122°21'0 0.0
2014-Nov-16 05:33N 47°35' W 122°21'0 0.0
2014-Nov-16 04:33N 47°35' W 122°21'0 0.0
2014-Nov-16 03:33N 47°35' W 122°21'0 0.0
2014-Nov-16 02:33N 47°35' W 122°21'0 0.0
2014-Nov-16 01:33N 47°35' W 122°21'0 0.0
2014-Nov-16 00:33N 47°35' W 122°21'0 0.0
2014-Nov-15 23:33N 47°35' W 122°21'0 0.0
2014-Nov-15 22:33N 47°35' W 122°21'0 0.0
2014-Nov-15 21:33N 47°35' W 122°21'0 0.0
2014-Nov-15 20:33N 47°35' W 122°21'0 0.0
2014-Nov-15 19:33N 47°35' W 122°21'0 0.0
2014-Nov-15 18:34N 47°35' W 122°21'0 0.0
2014-Nov-15 17:34N 47°35' W 122°21'0 0.0
2014-Nov-15 16:33N 47°35' W 122°21'0 0.0
2014-Nov-15 15:33N 47°35' W 122°21'0 0.0
2014-Nov-15 14:33N 47°35' W 122°21'0 0.0
2014-Nov-15 13:34N 47°35' W 122°21'0 0.0
2014-Nov-15 12:33N 47°35' W 122°21'0 0.0
2014-Nov-15 11:33N 47°35' W 122°21'2 1.8
2014-Nov-15 10:33N 47°37' W 122°21'1010.0
2014-Nov-15 09:33N 47°46' W 122°27'1919.3
2014-Nov-15 08:33N 48°03' W 122°39'1918.5
2014-Nov-15 07:33N 48°12' W 123°04'1514.8
2014-Nov-15 06:33N 48°10' W 123°26'1413.9
2014-Nov-15 05:33N 48°13' W 123°46'2121.0
2014-Nov-15 04:34N 48°20' W 124°16'2323.1
2014-Nov-15 03:33N 48°28' W 124°48'2222.5
2014-Nov-15 02:33N 48°25' W 125°22'2323.0
2014-Nov-15 01:33N 48°15' W 125°54'  
2014-Nov-11 18:00N 27°30' W 152°18'   360 / 191012.010.8 21.110.725.7
Track history (hours):
 
Tides and Currents Weather Stations Pressure Air Temp Water Temp Dewpoint Dewpoint Depression Visibility Wind Speed Wind Dir Waves Ship Positions

Manoa

Owner: MATSON NAVIGATION CO, RALEIGH, NC. More information available from US FCC via Universal Licensing System and Coast Guard Vessel Documentation Center.

Last reported at 2014-Nov-21 06:00 UTC. Time now 2014-Nov-21 20:27 UTC.
Position N 32°18' W 137°48'.

Type: Cargo ship. MMSI: 366562000.

Wind from 300 at 19 knots

Barometer 1025.1 mb
Air temperature 19.4 ° C
Visibility: greater than 10.8 NM
Dewpoint 14.1 ° C
Water temperature 22.4 ° C

Date/timePositionNaut miles runAvg speedWind from/ knotsBaromVisibWave heightAir tempDewpointWater temp
2014-Nov-21 06:00N 32°18' W 137°48'77918.3 300 / 191025.110.8 19.414.122.4
2014-Nov-19 11:27N 37°30' W 123°18'1516.9
2014-Nov-19 10:33N 37°36' W 123°00'1716.6
2014-Nov-19 09:33N 37°44' W 122°42'1313.2
2014-Nov-19 08:34N 37°50' W 122°27'8 7.6
2014-Nov-19 07:33N 37°48' W 122°18'0 0.0
2014-Nov-19 06:33N 37°48' W 122°18'0 0.0
2014-Nov-19 05:31N 37°48' W 122°18'0 0.0
2014-Nov-19 04:31N 37°48' W 122°18'0 0.0
2014-Nov-19 03:31N 37°48' W 122°18'0 0.0
2014-Nov-19 02:31N 37°48' W 122°18'0 0.0
2014-Nov-19 01:31N 37°48' W 122°18'0 0.0
2014-Nov-19 00:31N 37°48' W 122°18'0 0.0
2014-Nov-18 23:31N 37°48' W 122°18'0 0.0
2014-Nov-18 22:31N 37°48' W 122°18'0 0.0
2014-Nov-18 21:31N 37°48' W 122°18'0 0.0
2014-Nov-18 20:31N 37°48' W 122°18'0 0.0
2014-Nov-18 19:31N 37°48' W 122°18'0 0.0
2014-Nov-18 18:31N 37°48' W 122°18'0 0.0
2014-Nov-18 17:31N 37°48' W 122°18'0 0.0
2014-Nov-18 16:31N 37°48' W 122°18'0 0.0
2014-Nov-18 15:31N 37°48' W 122°18'0 0.0
2014-Nov-18 14:31N 37°48' W 122°18'0 0.0
2014-Nov-18 13:31N 37°48' W 122°18'0 0.0
2014-Nov-18 12:31N 37°48' W 122°18'0 0.0
2014-Nov-18 11:31N 37°48' W 122°18'0 0.0
2014-Nov-18 10:31N 37°48' W 122°18'0 0.0
2014-Nov-18 09:31N 37°48' W 122°18'0 0.0
2014-Nov-18 08:31N 37°48' W 122°18'0 0.0
2014-Nov-18 07:31N 37°48' W 122°18'0 0.0
2014-Nov-18 06:31N 37°48' W 122°18'0 0.0
2014-Nov-18 05:31N 37°48' W 122°18'0 0.0
2014-Nov-18 04:31N 37°48' W 122°18'0 0.0
2014-Nov-18 03:31N 37°48' W 122°18'0 0.4
2014-Nov-18 02:33N 37°48' W 122°18'4 3.6
2014-Nov-18 01:33N 37°47' W 122°22'6 5.9
2014-Nov-18 00:33N 37°49' W 122°29'1212.3
2014-Nov-17 23:33N 37°47' W 122°45'1716.9
2014-Nov-17 22:33N 37°54' W 123°04'1818.0
2014-Nov-17 21:33N 38°06' W 123°21'1818.2
2014-Nov-17 20:33N 38°15' W 123°40'1615.9
2014-Nov-17 19:33N 38°23' W 123°58'1918.7
2014-Nov-17 18:33N 38°35' W 124°16'2322.6
2014-Nov-17 17:33N 38°57' W 124°25'39222.9
2014-Nov-17 00:25N 45°27' W 125°16'2023.0
2014-Nov-16 23:34N 45°47' W 125°17'2222.1
2014-Nov-16 22:33N 46°09' W 125°18'1818.4
2014-Nov-16 21:33N 46°27' W 125°19'2322.4
2014-Nov-16 20:32N 46°50' W 125°20'7522.3
2014-Nov-16 17:09N 48°05' W 125°18'1423.1
2014-Nov-16 16:33N 48°19' W 125°11'2020.1
2014-Nov-16 15:34N 48°31' W 124°48'2323.1
2014-Nov-16 14:34N 48°23' W 124°15'2322.7
2014-Nov-16 13:33N 48°16' W 123°42'1515.4
2014-Nov-16 12:34N 48°09' W 123°22'1817.7
2014-Nov-16 11:33N 48°12' W 122°56'2121.4
2014-Nov-16 10:33N 47°57' W 122°33'1817.9
2014-Nov-16 09:33N 47°40' W 122°27'7 6.6
2014-Nov-16 08:33N 47°35' W 122°21'0 0.0
2014-Nov-16 07:33N 47°35' W 122°21'0 0.0
2014-Nov-16 06:33N 47°35' W 122°21'0 0.0
2014-Nov-16 05:33N 47°35' W 122°21'0 0.0
2014-Nov-16 04:33N 47°35' W 122°21'0 0.0
2014-Nov-16 03:33N 47°35' W 122°21'0 0.0
2014-Nov-16 02:33N 47°35' W 122°21'0 0.0
2014-Nov-16 01:33N 47°35' W 122°21'0 0.0
2014-Nov-16 00:33N 47°35' W 122°21'0 0.0
2014-Nov-15 23:33N 47°35' W 122°21'0 0.0
2014-Nov-15 22:33N 47°35' W 122°21'0 0.0
2014-Nov-15 21:33N 47°35' W 122°21'0 0.0
2014-Nov-15 20:33N 47°35' W 122°21'0 0.0
2014-Nov-15 19:33N 47°35' W 122°21'0 0.0
2014-Nov-15 18:34N 47°35' W 122°21'0 0.0
2014-Nov-15 17:34N 47°35' W 122°21'0 0.0
2014-Nov-15 16:33N 47°35' W 122°21'0 0.0
2014-Nov-15 15:33N 47°35' W 122°21'0 0.0
2014-Nov-15 14:33N 47°35' W 122°21'0 0.0
2014-Nov-15 13:34N 47°35' W 122°21'0 0.0
2014-Nov-15 12:33N 47°35' W 122°21'0 0.0
2014-Nov-15 11:33N 47°35' W 122°21'2 1.8
2014-Nov-15 10:33N 47°37' W 122°21'1010.0
2014-Nov-15 09:33N 47°46' W 122°27'1919.3
2014-Nov-15 08:33N 48°03' W 122°39'1918.5
2014-Nov-15 07:33N 48°12' W 123°04'1514.8
2014-Nov-15 06:33N 48°10' W 123°26'1413.9
2014-Nov-15 05:33N 48°13' W 123°46'2121.0
2014-Nov-15 04:34N 48°20' W 124°16'2323.1
2014-Nov-15 03:33N 48°28' W 124°48'2222.5
2014-Nov-15 02:33N 48°25' W 125°22'2323.0
2014-Nov-15 01:33N 48°15' W 125°54'  
2014-Nov-11 18:00N 27°30' W 152°18'   360 / 191012.010.8 21.110.725.7

Dump ship's entire track history